Time;durP1;ratioP1;P1;durP2;ratioP2;P2;SDS_P1;SDS_P2;PMS_P1;PMS_P2;Temp;Humidity;BMP_temperature;BMP_pressure;BME280_temperature;BME280_humidity;BME280_pressure;Samples;Min_cycle;Max_cycle;Signal;HPM_P1;HPM_P2
2021/07/21 05:00:41;;;;;;;15.23;13.40;;;;;;;;;;6312865;22;884108;-73
2021/07/21 05:03:34;;;;;;;14.07;12.67;;;;;;;;;;5086744;28;20566;-75
2021/07/21 05:06:18;;;;;;;14.67;13.10;;;;;;;;;;5085414;28;20203;-75
2021/07/21 05:09:04;;;;;;;14.90;13.20;;;;;;;;;;5081120;28;20294;-75
2021/07/21 05:11:48;;;;;;;15.10;13.00;;;;;;;;;;5080472;28;20353;-75
2021/07/21 05:14:33;;;;;;;14.97;13.43;;;;;;;;;;5087487;22;20256;-73
2021/07/21 05:17:18;;;;;;;16.57;13.97;;;;;;;;;;5066208;28;20231;-73
2021/07/21 05:20:05;;;;;;;15.60;12.87;;;;;;;;;;5067742;28;20208;-71
2021/07/21 05:22:50;;;;;;;16.27;13.40;;;;;;;;;;5065638;28;20232;-73
2021/07/21 05:25:36;;;;;;;15.00;13.40;;;;;;;;;;5050826;28;20220;-73
2021/07/21 05:28:22;;;;;;;15.20;13.57;;;;;;;;;;5027718;28;20209;-73
2021/07/21 05:31:06;;;;;;;15.97;14.27;;;;;;;;;;5044867;28;20201;-72
2021/07/21 05:33:52;;;;;;;16.07;13.50;;;;;;;;;;5047484;28;20205;-71
2021/07/21 05:36:39;;;;;;;16.07;14.47;;;;;;;;;;5046491;28;20214;-71
2021/07/21 05:39:24;;;;;;;16.33;14.20;;;;;;;;;;5047479;28;20229;-72
2021/07/21 05:42:09;;;;;;;16.93;14.87;;;;;;;;;;5047233;28;20221;-73
2021/07/21 05:44:54;;;;;;;16.67;14.53;;;;;;;;;;5046094;28;20237;-72
2021/07/21 05:47:40;;;;;;;15.90;14.17;;;;;;;;;;5026611;28;20205;-72
2021/07/21 05:50:25;;;;;;;15.87;14.17;;;;;;;;;;5038299;28;20213;-72
2021/07/21 05:53:12;;;;;;;18.60;16.63;;;;;;;;;;5045287;28;20478;-72
2021/07/21 05:55:57;;;;;;;20.90;16.03;;;;;;;;;;5041082;28;20241;-72
2021/07/21 05:58:42;;;;;;;19.73;15.77;;;;;;;;;;5046700;28;20218;-72
2021/07/21 06:01:27;;;;;;;18.57;14.47;;;;;;;;;;5041653;28;20253;-72
2021/07/21 06:04:12;;;;;;;16.33;14.47;;;;;;;;;;5026982;28;20237;-72
2021/07/21 06:06:57;;;;;;;18.53;14.17;;;;;;;;;;5026468;28;20703;-72
2021/07/21 06:09:43;;;;;;;15.77;14.17;;;;;;;;;;5026992;28;20283;-72
2021/07/21 06:12:28;;;;;;;19.03;14.20;;;;;;;;;;5035154;28;20210;-75
2021/07/21 06:15:13;;;;;;;15.83;14.23;;;;;;;;;;5030112;28;20844;-73
2021/07/21 06:17:58;;;;;;;18.07;15.40;;;;;;;;;;5031622;28;20388;-72
2021/07/21 06:20:43;;;;;;;16.13;14.40;;;;;;;;;;5015139;28;20580;-73
2021/07/21 06:23:28;;;;;;;17.17;14.37;;;;;;;;;;5029095;28;20234;-73
2021/07/21 06:26:14;;;;;;;20.27;15.63;;;;;;;;;;5032009;28;20205;-71
2021/07/21 06:28:59;;;;;;;17.70;15.67;;;;;;;;;;5032652;28;20253;-73
2021/07/21 06:31:44;;;;;;;18.27;16.03;;;;;;;;;;5032614;28;20281;-72
2021/07/21 06:34:29;;;;;;;18.33;15.33;;;;;;;;;;5028163;28;20272;-74
2021/07/21 06:37:14;;;;;;;19.07;16.63;;;;;;;;;;5030125;28;20682;-72
2021/07/21 06:39:59;;;;;;;19.37;16.87;;;;;;;;;;5030616;28;20211;-71
2021/07/21 06:42:45;;;;;;;18.80;16.27;;;;;;;;;;5030289;28;20309;-71
2021/07/21 06:45:30;;;;;;;19.50;17.43;;;;;;;;;;5028667;28;20234;-71
2021/07/21 06:48:15;;;;;;;23.00;20.50;;;;;;;;;;5029805;28;20407;-72
2021/07/21 06:51:00;;;;;;;20.60;18.43;;;;;;;;;;5028543;28;20730;-71
2021/07/21 06:53:46;;;;;;;21.20;17.83;;;;;;;;;;5027726;28;20268;-72
2021/07/21 06:56:31;;;;;;;21.00;18.10;;;;;;;;;;5030641;28;20704;-71
2021/07/21 06:59:17;;;;;;;20.60;18.40;;;;;;;;;;5031189;28;20213;-73
2021/07/21 07:02:02;;;;;;;20.50;18.37;;;;;;;;;;5026404;28;20702;-71
2021/07/21 07:04:48;;;;;;;20.00;18.10;;;;;;;;;;5032536;28;20736;-73
2021/07/21 07:07:32;;;;;;;21.60;18.83;;;;;;;;;;5031772;28;20578;-74
2021/07/21 07:10:18;;;;;;;20.43;18.43;;;;;;;;;;5030873;28;20289;-74
2021/07/21 07:13:05;;;;;;;21.20;18.80;;;;;;;;;;5031335;28;20210;-73
2021/07/21 07:15:51;;;;;;;21.07;18.83;;;;;;;;;;5031028;28;20232;-73
2021/07/21 07:18:37;;;;;;;21.50;18.53;;;;;;;;;;5031138;28;20214;-73
2021/07/21 07:21:23;;;;;;;20.50;18.50;;;;;;;;;;5031231;28;20221;-74
2021/07/21 07:24:09;;;;;;;20.63;18.40;;;;;;;;;;5031650;28;20236;-72
2021/07/21 07:26:54;;;;;;;20.17;18.07;;;;;;;;;;5029498;28;20213;-72
2021/07/21 07:29:39;;;;;;;21.23;19.13;;;;;;;;;;5031182;28;20216;-72
2021/07/21 07:32:25;;;;;;;22.57;20.23;;;;;;;;;;5030724;28;20215;-72
2021/07/21 07:35:11;;;;;;;21.47;19.27;;;;;;;;;;5030725;28;20238;-72
2021/07/21 07:37:56;;;;;;;20.03;17.83;;;;;;;;;;5030897;28;20262;-72
2021/07/21 07:40:41;;;;;;;21.30;19.13;;;;;;;;;;5031583;28;20619;-72
2021/07/21 07:43:26;;;;;;;21.27;18.93;;;;;;;;;;5030429;28;20374;-72
2021/07/21 07:46:11;;;;;;;22.02;19.70;;;;;;;;;;5030876;28;20425;-74
2021/07/21 07:48:58;;;;;;;21.23;18.93;;;;;;;;;;5031660;28;20207;-74
2021/07/21 07:51:43;;;;;;;20.53;18.47;;;;;;;;;;5030706;28;20227;-74
2021/07/21 07:54:28;;;;;;;21.47;19.23;;;;;;;;;;5011704;28;20284;-74
2021/07/21 07:57:13;;;;;;;20.63;18.53;;;;;;;;;;5011056;28;20212;-75
2021/07/21 07:59:57;;;;;;;21.47;18.07;;;;;;;;;;5012216;28;20284;-74
2021/07/21 08:02:42;;;;;;;20.93;18.87;;;;;;;;;;5029310;28;20368;-75
2021/07/21 08:05:29;;;;;;;22.93;18.30;;;;;;;;;;5030981;28;20241;-74
2021/07/21 08:08:14;;;;;;;20.20;17.87;;;;;;;;;;5031324;28;20296;-75
2021/07/21 08:10:59;;;;;;;21.40;17.30;;;;;;;;;;5031728;28;20272;-74
2021/07/21 08:13:44;;;;;;;19.33;17.03;;;;;;;;;;5030201;28;20422;-76
2021/07/21 08:16:30;;;;;;;20.90;17.00;;;;;;;;;;5030608;28;20298;-74
2021/07/21 08:19:14;;;;;;;18.57;15.20;;;;;;;;;;5031176;28;20210;-76
2021/07/21 08:22:01;;;;;;;16.10;14.50;;;;;;;;;;5031120;28;20692;-75
2021/07/21 08:24:45;;;;;;;15.83;14.20;;;;;;;;;;5030206;28;20230;-75
2021/07/21 08:27:30;;;;;;;16.90;14.37;;;;;;;;;;5030669;28;20323;-75
2021/07/21 08:30:15;;;;;;;15.37;13.77;;;;;;;;;;5030893;28;20290;-74
2021/07/21 08:33:00;;;;;;;12.63;11.37;;;;;;;;;;5030179;28;20423;-74
2021/07/21 08:35:45;;;;;;;12.43;10.27;;;;;;;;;;5031215;28;20229;-75
2021/07/21 08:38:32;;;;;;;12.43;10.47;;;;;;;;;;5030793;28;20202;-75
2021/07/21 08:41:17;;;;;;;11.50;10.33;;;;;;;;;;5031245;28;20338;-75
2021/07/21 08:44:02;;;;;;;13.97;11.97;;;;;;;;;;5029553;28;20237;-74
2021/07/21 08:46:47;;;;;;;15.13;11.13;;;;;;;;;;5027142;28;20951;-74
2021/07/21 08:49:31;;;;;;;12.47;9.67;;;;;;;;;;5012928;28;20234;-74
2021/07/21 08:52:17;;;;;;;10.43;9.53;;;;;;;;;;5027733;28;20225;-74
2021/07/21 08:55:05;;;;;;;13.63;10.23;;;;;;;;;;5028669;28;20733;-76
2021/07/21 08:57:50;;;;;;;12.07;9.70;;;;;;;;;;5030060;28;20702;-75
2021/07/21 09:00:35;;;;;;;14.27;9.67;;;;;;;;;;5030319;28;20233;-75
2021/07/21 09:03:21;;;;;;;12.70;10.10;;;;;;;;;;5030041;28;20591;-75
2021/07/21 09:06:06;;;;;;;12.30;9.70;;;;;;;;;;5023047;28;20214;-75
2021/07/21 09:08:51;;;;;;;12.33;10.57;;;;;;;;;;5031382;28;20279;-75
2021/07/21 09:11:37;;;;;;;9.77;8.57;;;;;;;;;;5025358;28;20349;-75
2021/07/21 09:14:22;;;;;;;12.07;9.70;;;;;;;;;;5030278;28;20621;-75
2021/07/21 09:17:09;;;;;;;12.37;11.17;;;;;;;;;;5026617;28;20737;-73
2021/07/21 09:19:54;;;;;;;12.23;10.63;;;;;;;;;;5029502;28;20220;-73
2021/07/21 09:22:39;;;;;;;12.13;10.77;;;;;;;;;;5030487;28;20667;-72
2021/07/21 09:25:24;;;;;;;11.27;10.20;;;;;;;;;;5019685;28;20278;-72
2021/07/21 09:28:11;;;;;;;10.93;9.80;;;;;;;;;;5027967;28;20330;-73
2021/07/21 09:30:57;;;;;;;12.40;10.70;;;;;;;;;;5029858;28;20271;-74
2021/07/21 09:33:43;;;;;;;10.60;8.43;;;;;;;;;;5030405;28;20291;-74
2021/07/21 09:36:28;;;;;;;9.00;8.17;;;;;;;;;;5029716;28;20208;-73
2021/07/21 09:39:14;;;;;;;9.73;8.73;;;;;;;;;;5029670;28;20577;-73
2021/07/21 09:42:00;;;;;;;9.80;8.90;;;;;;;;;;5030449;28;20229;-73
2021/07/21 09:44:46;;;;;;;9.90;8.68;;;;;;;;;;5028689;28;20434;-73
2021/07/21 09:47:31;;;;;;;8.80;8.00;;;;;;;;;;5029750;28;20762;-73
2021/07/21 09:50:20;;;;;;;9.60;8.40;;;;;;;;;;5040295;28;20224;-72
2021/07/21 09:53:07;;;;;;;8.77;7.97;;;;;;;;;;5034514;28;20213;-73
2021/07/21 09:55:59;;;;;;;10.57;9.13;;;;;;;;;;5035737;28;20610;-74
2021/07/21 09:58:44;;;;;;;10.40;9.40;;;;;;;;;;5036341;28;20228;-74
2021/07/21 10:01:31;;;;;;;10.77;9.73;;;;;;;;;;5035763;28;20624;-73
2021/07/21 10:04:29;;;;;;;11.00;9.70;;;;;;;;;;5030611;28;20233;-75
2021/07/21 10:07:29;;;;;;;8.83;8.00;;;;;;;;;;5029474;28;20694;-75
2021/07/21 10:10:15;;;;;;;8.93;8.03;;;;;;;;;;5035670;28;20264;-76
2021/07/21 10:13:02;;;;;;;9.70;8.67;;;;;;;;;;5030153;28;20643;-76
2021/07/21 10:15:48;;;;;;;8.50;7.73;;;;;;;;;;5028611;28;20282;-76
2021/07/21 10:18:34;;;;;;;10.93;7.70;;;;;;;;;;5034001;28;20224;-73
2021/07/21 10:21:19;;;;;;;9.10;8.33;;;;;;;;;;5029602;28;20698;-74
2021/07/21 10:24:06;;;;;;;9.70;8.73;;;;;;;;;;5025710;28;20608;-73
2021/07/21 10:26:52;;;;;;;10.17;9.17;;;;;;;;;;5028630;28;20208;-72
2021/07/21 10:29:37;;;;;;;10.73;9.47;;;;;;;;;;5030544;28;20259;-72
2021/07/21 10:32:22;;;;;;;10.00;9.10;;;;;;;;;;5030462;28;20691;-72
2021/07/21 10:35:10;;;;;;;9.70;8.70;;;;;;;;;;5030022;28;20273;-73
2021/07/21 10:37:55;;;;;;;10.00;9.07;;;;;;;;;;5028386;28;20206;-72
2021/07/21 10:40:40;;;;;;;9.80;8.70;;;;;;;;;;5030404;28;20267;-72
2021/07/21 10:43:28;;;;;;;9.15;8.20;;;;;;;;;;5029991;28;20556;-72
2021/07/21 10:46:33;;;;;;;9.13;8.23;;;;;;;;;;5029152;28;20913;-71
2021/07/21 10:49:22;;;;;;;10.60;9.33;;;;;;;;;;5025283;28;20209;-69
2021/07/21 10:52:51;;;;;;;10.10;9.00;;;;;;;;;;5029308;28;20213;-71
2021/07/21 10:55:42;;;;;;;10.30;9.30;;;;;;;;;;5028719;28;20297;-72
2021/07/21 11:01:30;;;;;;;11.23;9.73;;;;;;;;;;5028157;28;20264;-71
2021/07/21 11:04:16;;;;;;;10.57;9.50;;;;;;;;;;5028532;28;20222;-71
2021/07/21 11:07:01;;;;;;;10.97;9.83;;;;;;;;;;5027704;28;20332;-71
2021/07/21 11:09:49;;;;;;;13.20;9.63;;;;;;;;;;5029974;28;20940;-71
2021/07/21 11:12:47;;;;;;;11.40;10.17;;;;;;;;;;5029565;28;20592;-71
2021/07/21 11:15:36;;;;;;;10.97;9.23;;;;;;;;;;5030580;28;20237;-71
2021/07/21 11:18:42;;;;;;;10.40;9.40;;;;;;;;;;5030443;28;20221;-70
2021/07/21 11:21:27;;;;;;;11.57;10.48;;;;;;;;;;5024910;28;20454;-70
2021/07/21 11:24:12;;;;;;;11.13;10.03;;;;;;;;;;5032080;28;20261;-70
2021/07/21 11:26:58;;;;;;;10.60;9.60;;;;;;;;;;5031258;28;20288;-71
2021/07/21 11:29:48;;;;;;;10.63;9.70;;;;;;;;;;5032146;28;20197;-71
2021/07/21 11:32:33;;;;;;;10.80;9.70;;;;;;;;;;5031666;28;20217;-70
2021/07/21 11:35:37;;;;;;;10.70;9.70;;;;;;;;;;5032027;28;20304;-71
2021/07/21 11:38:42;;;;;;;9.57;8.60;;;;;;;;;;5031876;28;20292;-72
2021/07/21 11:41:47;;;;;;;11.23;10.13;;;;;;;;;;5031438;28;20678;-72
2021/07/21 11:44:34;;;;;;;10.73;9.80;;;;;;;;;;5030018;28;21034;-71
2021/07/21 11:47:19;;;;;;;11.57;10.37;;;;;;;;;;5030709;28;20328;-71
2021/07/21 11:50:08;;;;;;;10.70;9.70;;;;;;;;;;5031664;28;20213;-71
2021/07/21 11:52:54;;;;;;;10.33;9.43;;;;;;;;;;5031312;28;20194;-71
2021/07/21 11:55:40;;;;;;;10.13;9.23;;;;;;;;;;5031005;28;20281;-69
2021/07/21 11:58:32;;;;;;;10.87;9.87;;;;;;;;;;5031160;28;20209;-72
2021/07/21 12:01:27;;;;;;;9.67;8.77;;;;;;;;;;5031283;28;20492;-73
2021/07/21 12:04:12;;;;;;;10.13;9.23;;;;;;;;;;5027744;28;20595;-72
2021/07/21 12:06:57;;;;;;;11.10;10.10;;;;;;;;;;5025064;28;20311;-72
2021/07/21 12:09:43;;;;;;;11.73;10.07;;;;;;;;;;5011911;28;20207;-72
2021/07/21 12:12:28;;;;;;;9.93;9.13;;;;;;;;;;5010853;28;20275;-72
2021/07/21 12:15:15;;;;;;;11.60;10.50;;;;;;;;;;5025130;28;20349;-72
2021/07/21 12:18:08;;;;;;;10.90;9.90;;;;;;;;;;5029450;28;20217;-73
2021/07/21 12:20:53;;;;;;;13.07;10.00;;;;;;;;;;5028488;28;20566;-71
2021/07/21 12:23:38;;;;;;;10.33;9.40;;;;;;;;;;5028855;28;20222;-73
2021/07/21 12:26:23;;;;;;;11.47;10.37;;;;;;;;;;5027879;28;20213;-71
2021/07/21 12:29:08;;;;;;;11.83;10.67;;;;;;;;;;5028139;28;20820;-72
2021/07/21 12:32:01;;;;;;;11.87;10.77;;;;;;;;;;5029351;28;20333;-69
2021/07/21 12:34:49;;;;;;;14.33;10.60;;;;;;;;;;5029960;28;20226;-73
2021/07/21 12:37:38;;;;;;;10.97;9.63;;;;;;;;;;5029499;28;20384;-73
2021/07/21 12:40:24;;;;;;;11.97;10.60;;;;;;;;;;5029654;28;20242;-72
2021/07/21 12:43:14;;;;;;;11.03;9.90;;;;;;;;;;5030781;28;20572;-73
2021/07/21 12:45:59;;;;;;;11.40;10.30;;;;;;;;;;5030106;28;20733;-73
2021/07/21 12:48:45;;;;;;;12.60;11.33;;;;;;;;;;5029908;28;20605;-73
2021/07/21 12:51:31;;;;;;;11.60;10.60;;;;;;;;;;5030509;28;20198;-73
2021/07/21 12:54:19;;;;;;;12.13;10.83;;;;;;;;;;5030744;28;20296;-73
2021/07/21 12:57:04;;;;;;;11.00;9.90;;;;;;;;;;5030047;28;20573;-73
2021/07/21 12:59:50;;;;;;;11.00;10.10;;;;;;;;;;5031093;28;20213;-72
2021/07/21 13:02:34;;;;;;;11.90;10.87;;;;;;;;;;5030710;28;20206;-73
2021/07/21 13:05:30;;;;;;;11.30;10.20;;;;;;;;;;5030236;28;20232;-73
2021/07/21 13:08:20;;;;;;;11.27;10.07;;;;;;;;;;5030638;28;20389;-72
2021/07/21 13:11:09;;;;;;;12.60;11.40;;;;;;;;;;5030851;28;20233;-73
2021/07/21 13:13:55;;;;;;;11.33;10.23;;;;;;;;;;5030505;28;20580;-72
2021/07/21 13:16:40;;;;;;;10.97;9.90;;;;;;;;;;5029727;28;20672;-73
2021/07/21 13:19:32;;;;;;;11.80;10.70;;;;;;;;;;5030552;28;20701;-72
2021/07/21 13:22:21;;;;;;;11.67;10.47;;;;;;;;;;5030551;28;20702;-74
2021/07/21 13:25:11;;;;;;;12.37;11.13;;;;;;;;;;5033594;28;20253;-72
2021/07/21 13:27:56;;;;;;;12.70;11.60;;;;;;;;;;5033784;28;20264;-73
2021/07/21 13:30:41;;;;;;;12.20;11.00;;;;;;;;;;5034339;28;20618;-73
2021/07/21 13:33:30;;;;;;;11.33;10.13;;;;;;;;;;5034329;28;20329;-73
2021/07/21 13:36:18;;;;;;;12.20;11.10;;;;;;;;;;5033586;28;20329;-72
2021/07/21 13:39:04;;;;;;;12.20;11.00;;;;;;;;;;5034399;28;20225;-73
2021/07/21 13:41:54;;;;;;;13.43;11.77;;;;;;;;;;5034278;28;20789;-72
2021/07/21 13:44:39;;;;;;;13.47;12.10;;;;;;;;;;5033911;28;20753;-72
2021/07/21 13:47:27;;;;;;;13.23;12.02;;;;;;;;;;5032021;28;20791;-72
2021/07/21 13:50:15;;;;;;;13.17;11.87;;;;;;;;;;5034279;28;20186;-73
2021/07/21 13:53:00;;;;;;;12.60;11.40;;;;;;;;;;5034036;28;20276;-74
2021/07/21 13:55:45;;;;;;;12.90;11.70;;;;;;;;;;5033693;28;20217;-72
2021/07/21 13:58:31;;;;;;;12.37;11.27;;;;;;;;;;5033806;28;20213;-72
2021/07/21 14:01:17;;;;;;;13.80;11.70;;;;;;;;;;5034041;28;20214;-72
2021/07/21 14:04:01;;;;;;;13.93;11.10;;;;;;;;;;5033479;28;20331;-73
2021/07/21 14:06:47;;;;;;;11.93;10.77;;;;;;;;;;5030107;28;20210;-73
2021/07/21 14:09:32;;;;;;;12.20;10.90;;;;;;;;;;5032115;28;20282;-73
2021/07/21 14:12:17;;;;;;;12.10;10.90;;;;;;;;;;5029158;28;20217;-74
2021/07/21 14:15:03;;;;;;;12.68;11.38;;;;;;;;;;5031418;28;20422;-73
2021/07/21 14:17:48;;;;;;;12.23;11.13;;;;;;;;;;5030225;28;20698;-72
2021/07/21 14:20:33;;;;;;;12.57;11.23;;;;;;;;;;5033217;28;20353;-74
2021/07/21 14:23:18;;;;;;;11.73;10.73;;;;;;;;;;5013594;28;20289;-75
2021/07/21 14:26:03;;;;;;;12.00;10.77;;;;;;;;;;5025813;28;20230;-75
2021/07/21 14:28:48;;;;;;;11.80;10.60;;;;;;;;;;5033191;28;20210;-74
2021/07/21 14:31:34;;;;;;;11.43;10.37;;;;;;;;;;5031952;28;20225;-74
2021/07/21 14:34:20;;;;;;;11.00;9.97;;;;;;;;;;5028076;28;20229;-74
2021/07/21 14:37:06;;;;;;;11.27;10.17;;;;;;;;;;5032441;28;20214;-74
2021/07/21 14:39:51;;;;;;;17.13;15.53;;;;;;;;;;5026522;28;20206;-72
2021/07/21 14:42:36;;;;;;;11.40;10.40;;;;;;;;;;5030072;28;20220;-71
2021/07/21 14:45:21;;;;;;;12.30;10.90;;;;;;;;;;5031865;28;20428;-73
2021/07/21 14:48:08;;;;;;;11.47;10.47;;;;;;;;;;5031019;28;20741;-74
2021/07/21 14:50:53;;;;;;;11.70;10.50;;;;;;;;;;5030598;28;20570;-73
2021/07/21 14:53:38;;;;;;;12.50;11.30;;;;;;;;;;5030295;28;20736;-71
2021/07/21 14:56:23;;;;;;;12.93;11.63;;;;;;;;;;5013774;28;20276;-72
2021/07/21 14:59:08;;;;;;;12.43;11.13;;;;;;;;;;5031455;28;20221;-73
2021/07/21 15:01:54;;;;;;;12.37;11.27;;;;;;;;;;5031170;28;20729;-73
2021/07/21 15:04:40;;;;;;;13.00;11.77;;;;;;;;;;5028294;28;20217;-72
2021/07/21 15:07:25;;;;;;;13.67;12.37;;;;;;;;;;5028924;28;20341;-72
2021/07/21 15:10:11;;;;;;;12.73;11.53;;;;;;;;;;5030895;28;20209;-72
2021/07/21 15:12:57;;;;;;;13.13;11.80;;;;;;;;;;5030717;28;20213;-72
2021/07/21 15:15:42;;;;;;;13.27;11.40;;;;;;;;;;5027055;28;20586;-73
2021/07/21 15:18:27;;;;;;;13.13;11.93;;;;;;;;;;5030850;28;20272;-74
2021/07/21 15:21:14;;;;;;;12.70;11.40;;;;;;;;;;5028810;28;20804;-71
2021/07/21 15:23:59;;;;;;;15.77;12.53;;;;;;;;;;5029589;28;20471;-72
2021/07/21 15:26:45;;;;;;;23.93;15.10;;;;;;;;;;5028147;28;20902;-69
2021/07/21 15:29:32;;;;;;;16.83;12.70;;;;;;;;;;5031888;28;20216;-73
2021/07/21 15:32:17;;;;;;;13.57;11.60;;;;;;;;;;5031705;28;20213;-71
2021/07/21 15:35:03;;;;;;;15.30;12.27;;;;;;;;;;5029084;28;20280;-71
2021/07/21 15:37:50;;;;;;;13.80;11.17;;;;;;;;;;5029423;28;20284;-72
2021/07/21 15:40:35;;;;;;;14.90;11.03;;;;;;;;;;5029759;28;20276;-72
2021/07/21 15:43:20;;;;;;;13.97;10.83;;;;;;;;;;5031188;28;20223;-73
2021/07/21 15:46:05;;;;;;;11.97;10.53;;;;;;;;;;5027739;28;20721;-71
2021/07/21 15:48:50;;;;;;;14.75;10.68;;;;;;;;;;5029849;28;20454;-71
2021/07/21 15:51:35;;;;;;;12.00;10.67;;;;;;;;;;5029339;28;20293;-73
2021/07/21 15:54:22;;;;;;;11.60;10.50;;;;;;;;;;5031334;28;20238;-72
2021/07/21 15:57:09;;;;;;;11.50;10.53;;;;;;;;;;5029533;28;20695;-72
2021/07/21 15:59:54;;;;;;;11.60;10.50;;;;;;;;;;5031594;28;20198;-71
2021/07/21 16:02:39;;;;;;;12.27;10.30;;;;;;;;;;5031260;28;20206;-71
2021/07/21 16:05:26;;;;;;;11.50;10.47;;;;;;;;;;5031001;28;20567;-72
2021/07/21 16:08:11;;;;;;;12.37;10.63;;;;;;;;;;5027547;28;20218;-73
2021/07/21 16:10:59;;;;;;;11.30;10.10;;;;;;;;;;5029932;28;20209;-70
2021/07/21 16:13:45;;;;;;;12.17;10.13;;;;;;;;;;5028974;28;20206;-70
2021/07/21 16:16:30;;;;;;;12.40;11.30;;;;;;;;;;5029308;28;20210;-71
2021/07/21 16:19:15;;;;;;;11.70;10.50;;;;;;;;;;5031410;28;20337;-71
2021/07/21 16:22:00;;;;;;;12.23;10.93;;;;;;;;;;5029313;28;20210;-71
2021/07/21 16:24:45;;;;;;;10.57;9.53;;;;;;;;;;5030692;28;20230;-71
2021/07/21 16:27:32;;;;;;;10.87;9.77;;;;;;;;;;5028705;28;20616;-70
2021/07/21 16:30:17;;;;;;;10.83;9.83;;;;;;;;;;5029417;28;20357;-70
2021/07/21 16:33:01;;;;;;;11.57;10.47;;;;;;;;;;5030864;28;20261;-70
2021/07/21 16:35:46;;;;;;;11.17;10.17;;;;;;;;;;5030106;28;20299;-69
2021/07/21 16:38:31;;;;;;;10.83;9.83;;;;;;;;;;5029932;28;20288;-71
2021/07/21 16:41:16;;;;;;;11.40;10.40;;;;;;;;;;5029274;28;20286;-69
2021/07/21 16:44:02;;;;;;;11.80;10.77;;;;;;;;;;5030311;28;20284;-70
2021/07/21 16:46:47;;;;;;;11.50;10.52;;;;;;;;;;5028287;28;20831;-70
2021/07/21 16:49:32;;;;;;;11.70;10.60;;;;;;;;;;5027844;28;20217;-71
2021/07/21 16:52:17;;;;;;;11.60;10.43;;;;;;;;;;5029246;28;20286;-70
2021/07/21 16:55:02;;;;;;;12.20;11.07;;;;;;;;;;5029366;28;20234;-71
2021/07/21 16:57:47;;;;;;;11.00;10.10;;;;;;;;;;5024879;28;20221;-70
2021/07/21 17:00:35;;;;;;;12.30;11.13;;;;;;;;;;5010765;28;20245;-72
2021/07/21 17:03:20;;;;;;;11.23;10.20;;;;;;;;;;5025525;28;20260;-70
2021/07/21 17:06:06;;;;;;;11.67;10.60;;;;;;;;;;5027963;28;21091;-71
2021/07/21 17:08:52;;;;;;;11.33;10.33;;;;;;;;;;5018136;28;20705;-72
2021/07/21 17:11:37;;;;;;;11.73;10.73;;;;;;;;;;5028323;28;20218;-70
2021/07/21 17:14:22;;;;;;;11.47;10.37;;;;;;;;;;5030855;28;20241;-70
2021/07/21 17:17:08;;;;;;;11.40;10.40;;;;;;;;;;5029494;28;20570;-70
2021/07/21 17:19:53;;;;;;;11.73;10.63;;;;;;;;;;5030263;28;20225;-71
2021/07/21 17:22:38;;;;;;;12.03;10.93;;;;;;;;;;5027693;28;20298;-70
2021/07/21 17:25:23;;;;;;;11.43;10.43;;;;;;;;;;5019763;28;20229;-72
2021/07/21 17:28:12;;;;;;;11.93;10.83;;;;;;;;;;5029769;28;20206;-70
2021/07/21 17:30:57;;;;;;;12.87;10.97;;;;;;;;;;5029885;28;20718;-71
2021/07/21 17:33:45;;;;;;;11.97;10.87;;;;;;;;;;5029953;28;20250;-70
2021/07/21 17:36:30;;;;;;;11.47;10.50;;;;;;;;;;5029285;28;20749;-71
2021/07/21 17:39:16;;;;;;;11.80;10.67;;;;;;;;;;5029727;28;20230;-70
2021/07/21 17:42:00;;;;;;;12.30;10.63;;;;;;;;;;5030095;28;20734;-70
2021/07/21 17:44:45;;;;;;;12.00;10.93;;;;;;;;;;5030152;28;20586;-70
2021/07/21 17:47:30;;;;;;;13.15;11.95;;;;;;;;;;5028026;28;20968;-69
2021/07/21 17:50:18;;;;;;;12.13;10.93;;;;;;;;;;5025155;28;20214;-70
2021/07/21 17:53:04;;;;;;;11.70;10.60;;;;;;;;;;5027570;28;20799;-71
2021/07/21 17:55:52;;;;;;;12.83;11.70;;;;;;;;;;5026306;28;20222;-71
2021/07/21 17:58:36;;;;;;;12.20;11.10;;;;;;;;;;5029551;28;20341;-70
2021/07/21 18:01:22;;;;;;;12.43;11.23;;;;;;;;;;5027926;28;20706;-70
2021/07/21 18:04:07;;;;;;;12.97;11.63;;;;;;;;;;5029201;28;20304;-70
2021/07/21 18:06:53;;;;;;;12.70;11.60;;;;;;;;;;5027354;28;20246;-72
2021/07/21 18:09:38;;;;;;;12.67;11.37;;;;;;;;;;5021891;28;20326;-71
2021/07/21 18:12:23;;;;;;;12.03;10.83;;;;;;;;;;5029368;28;20217;-71
2021/07/21 18:15:08;;;;;;;12.07;10.90;;;;;;;;;;5032095;28;20348;-70
2021/07/21 18:17:54;;;;;;;12.63;11.33;;;;;;;;;;5032766;28;20669;-70
2021/07/21 18:20:38;;;;;;;12.23;11.13;;;;;;;;;;5032249;28;20209;-70
2021/07/21 18:23:25;;;;;;;13.57;12.17;;;;;;;;;;5033206;28;20206;-71
2021/07/21 18:26:09;;;;;;;14.23;12.37;;;;;;;;;;5031297;28;20232;-70
2021/07/21 18:28:54;;;;;;;14.43;12.93;;;;;;;;;;5033236;28;20205;-70
2021/07/21 18:31:39;;;;;;;13.50;12.30;;;;;;;;;;5033154;28;20206;-71
2021/07/21 18:34:24;;;;;;;13.40;12.10;;;;;;;;;;5033085;28;20709;-71
2021/07/21 18:37:09;;;;;;;16.23;12.80;;;;;;;;;;5031235;28;20469;-69
2021/07/21 18:39:56;;;;;;;14.23;12.37;;;;;;;;;;5033081;28;20221;-71
2021/07/21 18:42:41;;;;;;;15.27;13.80;;;;;;;;;;5032606;28;20393;-71
2021/07/21 18:45:27;;;;;;;14.70;13.30;;;;;;;;;;5030035;28;20427;-70
2021/07/21 18:48:11;;;;;;;13.60;12.37;;;;;;;;;;5029969;28;20233;-72
2021/07/21 18:50:56;;;;;;;13.70;11.50;;;;;;;;;;5031029;28;20231;-72
2021/07/21 18:53:43;;;;;;;12.70;11.33;;;;;;;;;;5030202;28;20337;-70
2021/07/21 18:56:29;;;;;;;13.23;12.03;;;;;;;;;;5020569;28;20229;-69
2021/07/21 18:59:14;;;;;;;13.90;12.20;;;;;;;;;;5012935;28;20217;-70
2021/07/21 19:01:59;;;;;;;13.90;12.53;;;;;;;;;;5029768;28;20216;-68
2021/07/21 19:04:44;;;;;;;12.93;11.63;;;;;;;;;;5032370;28;20808;-71
2021/07/21 19:07:29;;;;;;;13.37;12.07;;;;;;;;;;5030463;28;20225;-71
2021/07/21 19:10:14;;;;;;;13.93;11.47;;;;;;;;;;5032641;28;20205;-71
2021/07/21 19:13:01;;;;;;;12.23;11.00;;;;;;;;;;5032260;28;20247;-70
2021/07/21 19:15:46;;;;;;;11.93;10.73;;;;;;;;;;5031539;28;20592;-71
2021/07/21 19:18:30;;;;;;;12.10;10.90;;;;;;;;;;5032746;28;20294;-71
2021/07/21 19:21:15;;;;;;;11.87;10.80;;;;;;;;;;5032182;28;20568;-70
2021/07/21 19:24:00;;;;;;;13.33;12.13;;;;;;;;;;5032111;28;20210;-73
2021/07/21 19:26:45;;;;;;;14.80;13.17;;;;;;;;;;5031640;28;20312;-71
2021/07/21 19:29:33;;;;;;;14.13;12.70;;;;;;;;;;5030303;28;20590;-71
2021/07/21 19:32:18;;;;;;;12.90;11.70;;;;;;;;;;5032021;28;20233;-71
2021/07/21 19:35:03;;;;;;;12.93;11.63;;;;;;;;;;5030174;28;20671;-70
2021/07/21 19:37:48;;;;;;;12.43;11.23;;;;;;;;;;5029399;28;20207;-70
2021/07/21 19:40:33;;;;;;;11.93;10.73;;;;;;;;;;5031673;28;20315;-70
2021/07/21 19:43:20;;;;;;;13.37;11.97;;;;;;;;;;5030969;28;20297;-71
2021/07/21 19:46:08;;;;;;;14.40;13.03;;;;;;;;;;5030989;28;20598;-71
2021/07/21 19:48:53;;;;;;;15.73;14.13;;;;;;;;;;5031744;28;20262;-70
2021/07/21 19:51:39;;;;;;;15.90;14.40;;;;;;;;;;5031531;28;20211;-70
2021/07/21 19:54:24;;;;;;;16.33;14.13;;;;;;;;;;5031491;28;20715;-70
2021/07/21 19:57:10;;;;;;;15.70;14.23;;;;;;;;;;5030098;28;20250;-70
2021/07/21 19:59:55;;;;;;;15.97;14.47;;;;;;;;;;5030823;28;20211;-70
